sensor_id;sensor_type;location;lat;lon;timestamp;P1;durP1;ratioP1;P2;durP2;ratioP2
16531;SDS011;66872;63.142;14.482;2024-01-06T00:00:57;1.80;;;1.70;;
16531;SDS011;66872;63.142;14.482;2024-01-06T00:03:23;1.80;;;1.70;;
16531;SDS011;66872;63.142;14.482;2024-01-06T00:05:48;1.60;;;1.50;;
16531;SDS011;66872;63.142;14.482;2024-01-06T00:08:14;1.90;;;1.80;;
16531;SDS011;66872;63.142;14.482;2024-01-06T00:10:39;1.90;;;1.70;;
16531;SDS011;66872;63.142;14.482;2024-01-06T00:13:05;1.97;;;1.77;;
16531;SDS011;66872;63.142;14.482;2024-01-06T00:15:31;1.60;;;1.50;;
16531;SDS011;66872;63.142;14.482;2024-01-06T00:17:56;2.10;;;1.90;;
16531;SDS011;66872;63.142;14.482;2024-01-06T00:20:22;1.67;;;1.57;;
16531;SDS011;66872;63.142;14.482;2024-01-06T00:22:47;1.83;;;1.60;;
16531;SDS011;66872;63.142;14.482;2024-01-06T00:25:13;1.70;;;1.60;;
16531;SDS011;66872;63.142;14.482;2024-01-06T00:27:39;1.50;;;1.40;;
16531;SDS011;66872;63.142;14.482;2024-01-06T00:30:05;2.00;;;1.80;;
16531;SDS011;66872;63.142;14.482;2024-01-06T00:32:31;1.93;;;1.70;;
16531;SDS011;66872;63.142;14.482;2024-01-06T00:34:56;1.80;;;1.70;;
16531;SDS011;66872;63.142;14.482;2024-01-06T00:37:22;1.77;;;1.67;;
16531;SDS011;66872;63.142;14.482;2024-01-06T00:39:48;1.77;;;1.67;;
16531;SDS011;66872;63.142;14.482;2024-01-06T00:42:13;2.00;;;1.73;;
16531;SDS011;66872;63.142;14.482;2024-01-06T00:44:39;2.10;;;1.90;;
16531;SDS011;66872;63.142;14.482;2024-01-06T00:47:04;1.73;;;1.63;;
16531;SDS011;66872;63.142;14.482;2024-01-06T00:49:30;2.03;;;1.70;;
16531;SDS011;66872;63.142;14.482;2024-01-06T00:51:56;1.60;;;1.50;;
16531;SDS011;66872;63.142;14.482;2024-01-06T00:54:21;1.90;;;1.70;;
16531;SDS011;66872;63.142;14.482;2024-01-06T00:56:47;1.73;;;1.60;;
16531;SDS011;66872;63.142;14.482;2024-01-06T00:59:12;1.97;;;1.70;;
16531;SDS011;66872;63.142;14.482;2024-01-06T01:01:38;1.60;;;1.50;;
16531;SDS011;66872;63.142;14.482;2024-01-06T01:04:04;1.83;;;1.70;;
16531;SDS011;66872;63.142;14.482;2024-01-06T01:06:30;1.80;;;1.70;;
16531;SDS011;66872;63.142;14.482;2024-01-06T01:08:55;1.80;;;1.70;;
16531;SDS011;66872;63.142;14.482;2024-01-06T01:11:21;1.50;;;1.40;;
16531;SDS011;66872;63.142;14.482;2024-01-06T01:13:47;1.80;;;1.63;;
16531;SDS011;66872;63.142;14.482;2024-01-06T01:16:12;1.70;;;1.60;;
16531;SDS011;66872;63.142;14.482;2024-01-06T01:18:38;2.10;;;1.90;;
16531;SDS011;66872;63.142;14.482;2024-01-06T01:21:04;1.70;;;1.60;;
16531;SDS011;66872;63.142;14.482;2024-01-06T01:23:29;1.77;;;1.67;;
16531;SDS011;66872;63.142;14.482;2024-01-06T01:25:55;1.57;;;1.47;;
16531;SDS011;66872;63.142;14.482;2024-01-06T01:28:20;1.60;;;1.50;;
16531;SDS011;66872;63.142;14.482;2024-01-06T01:30:46;2.00;;;1.80;;
16531;SDS011;66872;63.142;14.482;2024-01-06T01:33:12;1.80;;;1.70;;
16531;SDS011;66872;63.142;14.482;2024-01-06T01:35:37;1.80;;;1.70;;
16531;SDS011;66872;63.142;14.482;2024-01-06T01:38:03;1.90;;;1.70;;
16531;SDS011;66872;63.142;14.482;2024-01-06T01:40:29;2.10;;;1.90;;
16531;SDS011;66872;63.142;14.482;2024-01-06T01:42:54;1.70;;;1.60;;
16531;SDS011;66872;63.142;14.482;2024-01-06T01:45:20;1.90;;;1.70;;
16531;SDS011;66872;63.142;14.482;2024-01-06T01:47:46;2.00;;;1.80;;
16531;SDS011;66872;63.142;14.482;2024-01-06T01:50:11;1.60;;;1.50;;
16531;SDS011;66872;63.142;14.482;2024-01-06T01:52:39;1.83;;;1.73;;
16531;SDS011;66872;63.142;14.482;2024-01-06T01:55:07;1.80;;;1.70;;
16531;SDS011;66872;63.142;14.482;2024-01-06T01:57:33;1.90;;;1.70;;
16531;SDS011;66872;63.142;14.482;2024-01-06T01:59:59;1.63;;;1.53;;
16531;SDS011;66872;63.142;14.482;2024-01-06T02:02:26;1.70;;;1.60;;
16531;SDS011;66872;63.142;14.482;2024-01-06T02:04:54;1.70;;;1.60;;
16531;SDS011;66872;63.142;14.482;2024-01-06T02:07:21;1.70;;;1.60;;
16531;SDS011;66872;63.142;14.482;2024-01-06T02:09:46;1.50;;;1.40;;
16531;SDS011;66872;63.142;14.482;2024-01-06T02:12:12;1.70;;;1.50;;
16531;SDS011;66872;63.142;14.482;2024-01-06T02:14:38;1.50;;;1.40;;
16531;SDS011;66872;63.142;14.482;2024-01-06T02:17:03;1.70;;;1.53;;
16531;SDS011;66872;63.142;14.482;2024-01-06T02:19:29;1.70;;;1.60;;
16531;SDS011;66872;63.142;14.482;2024-01-06T02:21:55;1.67;;;1.57;;
16531;SDS011;66872;63.142;14.482;2024-01-06T02:24:20;1.70;;;1.60;;
16531;SDS011;66872;63.142;14.482;2024-01-06T02:26:46;2.13;;;1.50;;
16531;SDS011;66872;63.142;14.482;2024-01-06T02:29:12;1.60;;;1.50;;
16531;SDS011;66872;63.142;14.482;2024-01-06T02:31:37;1.50;;;1.40;;
16531;SDS011;66872;63.142;14.482;2024-01-06T02:34:03;1.80;;;1.50;;
16531;SDS011;66872;63.142;14.482;2024-01-06T02:36:29;1.50;;;1.40;;
16531;SDS011;66872;63.142;14.482;2024-01-06T02:38:54;1.77;;;1.67;;
16531;SDS011;66872;63.142;14.482;2024-01-06T02:41:20;1.70;;;1.60;;
16531;SDS011;66872;63.142;14.482;2024-01-06T02:43:46;1.50;;;1.40;;
16531;SDS011;66872;63.142;14.482;2024-01-06T02:46:12;1.60;;;1.50;;
16531;SDS011;66872;63.142;14.482;2024-01-06T02:48:37;1.70;;;1.60;;
16531;SDS011;66872;63.142;14.482;2024-01-06T02:51:04;1.50;;;1.40;;
16531;SDS011;66872;63.142;14.482;2024-01-06T02:53:30;1.40;;;1.30;;
16531;SDS011;66872;63.142;14.482;2024-01-06T02:55:56;1.67;;;1.53;;
16531;SDS011;66872;63.142;14.482;2024-01-06T02:58:21;1.63;;;1.53;;
16531;SDS011;66872;63.142;14.482;2024-01-06T03:00:47;1.70;;;1.60;;
16531;SDS011;66872;63.142;14.482;2024-01-06T03:03:13;1.50;;;1.40;;
16531;SDS011;66872;63.142;14.482;2024-01-06T03:05:38;1.40;;;1.30;;
16531;SDS011;66872;63.142;14.482;2024-01-06T03:08:04;1.50;;;1.30;;
16531;SDS011;66872;63.142;14.482;2024-01-06T03:10:30;1.57;;;1.47;;
16531;SDS011;66872;63.142;14.482;2024-01-06T03:12:56;1.30;;;1.20;;
16531;SDS011;66872;63.142;14.482;2024-01-06T03:15:22;1.40;;;1.30;;
16531;SDS011;66872;63.142;14.482;2024-01-06T03:17:47;1.50;;;1.40;;
16531;SDS011;66872;63.142;14.482;2024-01-06T03:20:13;1.53;;;1.43;;
16531;SDS011;66872;63.142;14.482;2024-01-06T03:22:39;1.50;;;1.40;;
16531;SDS011;66872;63.142;14.482;2024-01-06T03:25:04;1.40;;;1.30;;
16531;SDS011;66872;63.142;14.482;2024-01-06T03:27:31;1.50;;;1.40;;
16531;SDS011;66872;63.142;14.482;2024-01-06T03:29:57;1.33;;;1.23;;
16531;SDS011;66872;63.142;14.482;2024-01-06T03:32:22;1.40;;;1.30;;
16531;SDS011;66872;63.142;14.482;2024-01-06T03:34:49;1.60;;;1.33;;
16531;SDS011;66872;63.142;14.482;2024-01-06T03:37:15;1.43;;;1.27;;
16531;SDS011;66872;63.142;14.482;2024-01-06T03:39:40;1.67;;;1.40;;
16531;SDS011;66872;63.142;14.482;2024-01-06T03:42:06;1.30;;;1.20;;
16531;SDS011;66872;63.142;14.482;2024-01-06T03:44:32;1.60;;;1.50;;
16531;SDS011;66872;63.142;14.482;2024-01-06T03:46:58;1.50;;;1.40;;
16531;SDS011;66872;63.142;14.482;2024-01-06T03:49:24;1.50;;;1.40;;
16531;SDS011;66872;63.142;14.482;2024-01-06T03:51:51;1.40;;;1.30;;
16531;SDS011;66872;63.142;14.482;2024-01-06T03:54:16;1.60;;;1.50;;
16531;SDS011;66872;63.142;14.482;2024-01-06T03:56:42;1.53;;;1.43;;
16531;SDS011;66872;63.142;14.482;2024-01-06T03:59:08;1.40;;;1.30;;
16531;SDS011;66872;63.142;14.482;2024-01-06T04:01:34;1.67;;;1.57;;
16531;SDS011;66872;63.142;14.482;2024-01-06T04:04:04;1.40;;;1.30;;
16531;SDS011;66872;63.142;14.482;2024-01-06T04:06:31;1.43;;;1.33;;
16531;SDS011;66872;63.142;14.482;2024-01-06T04:09:00;1.50;;;1.40;;
16531;SDS011;66872;63.142;14.482;2024-01-06T04:11:26;1.40;;;1.30;;
16531;SDS011;66872;63.142;14.482;2024-01-06T04:13:52;1.70;;;1.60;;
16531;SDS011;66872;63.142;14.482;2024-01-06T04:16:18;1.20;;;1.10;;
16531;SDS011;66872;63.142;14.482;2024-01-06T04:18:44;1.50;;;1.40;;
16531;SDS011;66872;63.142;14.482;2024-01-06T04:21:10;1.40;;;1.30;;
16531;SDS011;66872;63.142;14.482;2024-01-06T04:23:36;1.60;;;1.50;;
16531;SDS011;66872;63.142;14.482;2024-01-06T04:26:01;1.30;;;1.20;;
16531;SDS011;66872;63.142;14.482;2024-01-06T04:28:29;1.30;;;1.20;;
16531;SDS011;66872;63.142;14.482;2024-01-06T04:30:55;1.57;;;1.47;;
16531;SDS011;66872;63.142;14.482;2024-01-06T04:33:20;1.43;;;1.33;;
16531;SDS011;66872;63.142;14.482;2024-01-06T04:35:46;1.47;;;1.37;;
16531;SDS011;66872;63.142;14.482;2024-01-06T04:38:12;1.27;;;1.17;;
16531;SDS011;66872;63.142;14.482;2024-01-06T04:40:37;1.67;;;1.57;;
16531;SDS011;66872;63.142;14.482;2024-01-06T04:43:03;1.40;;;1.30;;
16531;SDS011;66872;63.142;14.482;2024-01-06T04:45:29;1.40;;;1.30;;
16531;SDS011;66872;63.142;14.482;2024-01-06T04:47:54;1.60;;;1.50;;
16531;SDS011;66872;63.142;14.482;2024-01-06T04:50:20;1.30;;;1.20;;
16531;SDS011;66872;63.142;14.482;2024-01-06T04:52:46;1.67;;;1.47;;
16531;SDS011;66872;63.142;14.482;2024-01-06T04:55:11;1.40;;;1.30;;
16531;SDS011;66872;63.142;14.482;2024-01-06T04:57:37;1.60;;;1.50;;
16531;SDS011;66872;63.142;14.482;2024-01-06T05:00:03;1.73;;;1.63;;
16531;SDS011;66872;63.142;14.482;2024-01-06T05:02:30;1.50;;;1.40;;
16531;SDS011;66872;63.142;14.482;2024-01-06T05:04:55;1.60;;;1.50;;
16531;SDS011;66872;63.142;14.482;2024-01-06T05:07:21;1.43;;;1.33;;
16531;SDS011;66872;63.142;14.482;2024-01-06T05:09:46;1.30;;;1.20;;
16531;SDS011;66872;63.142;14.482;2024-01-06T05:12:12;1.40;;;1.30;;
16531;SDS011;66872;63.142;14.482;2024-01-06T05:14:38;1.60;;;1.50;;
16531;SDS011;66872;63.142;14.482;2024-01-06T05:17:03;1.47;;;1.37;;
16531;SDS011;66872;63.142;14.482;2024-01-06T05:19:31;1.50;;;1.40;;
16531;SDS011;66872;63.142;14.482;2024-01-06T05:21:56;1.50;;;1.40;;
16531;SDS011;66872;63.142;14.482;2024-01-06T05:24:22;1.30;;;1.20;;
16531;SDS011;66872;63.142;14.482;2024-01-06T05:26:48;1.90;;;1.50;;
16531;SDS011;66872;63.142;14.482;2024-01-06T05:29:14;1.27;;;1.17;;
16531;SDS011;66872;63.142;14.482;2024-01-06T05:31:39;1.13;;;1.10;;
16531;SDS011;66872;63.142;14.482;2024-01-06T05:34:05;1.43;;;1.30;;
16531;SDS011;66872;63.142;14.482;2024-01-06T05:36:31;1.20;;;1.10;;
16531;SDS011;66872;63.142;14.482;2024-01-06T05:38:57;1.40;;;1.30;;
16531;SDS011;66872;63.142;14.482;2024-01-06T05:41:23;1.53;;;1.20;;
16531;SDS011;66872;63.142;14.482;2024-01-06T05:43:49;1.97;;;1.57;;
16531;SDS011;66872;63.142;14.482;2024-01-06T05:46:24;1.77;;;1.47;;
16531;SDS011;66872;63.142;14.482;2024-01-06T05:48:50;1.37;;;1.27;;
16531;SDS011;66872;63.142;14.482;2024-01-06T05:51:15;1.50;;;1.40;;
16531;SDS011;66872;63.142;14.482;2024-01-06T05:53:41;1.40;;;1.30;;
16531;SDS011;66872;63.142;14.482;2024-01-06T05:56:07;1.80;;;1.50;;
16531;SDS011;66872;63.142;14.482;2024-01-06T05:58:34;1.40;;;1.30;;
16531;SDS011;66872;63.142;14.482;2024-01-06T06:00:59;1.23;;;1.13;;
16531;SDS011;66872;63.142;14.482;2024-01-06T06:03:25;1.40;;;1.30;;
16531;SDS011;66872;63.142;14.482;2024-01-06T06:05:51;1.40;;;1.30;;
16531;SDS011;66872;63.142;14.482;2024-01-06T06:08:16;1.60;;;1.50;;
16531;SDS011;66872;63.142;14.482;2024-01-06T06:10:42;1.50;;;1.40;;
16531;SDS011;66872;63.142;14.482;2024-01-06T06:13:24;1.40;;;1.30;;
16531;SDS011;66872;63.142;14.482;2024-01-06T06:15:50;1.40;;;1.30;;
16531;SDS011;66872;63.142;14.482;2024-01-06T06:18:17;1.90;;;1.27;;
16531;SDS011;66872;63.142;14.482;2024-01-06T06:20:42;1.40;;;1.30;;
16531;SDS011;66872;63.142;14.482;2024-01-06T06:23:09;1.50;;;1.30;;
16531;SDS011;66872;63.142;14.482;2024-01-06T06:25:37;1.50;;;1.40;;
16531;SDS011;66872;63.142;14.482;2024-01-06T06:28:04;1.50;;;1.30;;
16531;SDS011;66872;63.142;14.482;2024-01-06T06:30:30;1.40;;;1.30;;
16531;SDS011;66872;63.142;14.482;2024-01-06T06:32:55;1.30;;;1.20;;
16531;SDS011;66872;63.142;14.482;2024-01-06T06:35:22;1.30;;;1.20;;
16531;SDS011;66872;63.142;14.482;2024-01-06T06:37:48;1.40;;;1.30;;
16531;SDS011;66872;63.142;14.482;2024-01-06T06:40:14;1.50;;;1.40;;
16531;SDS011;66872;63.142;14.482;2024-01-06T06:42:40;1.30;;;1.20;;
16531;SDS011;66872;63.142;14.482;2024-01-06T06:45:05;1.30;;;1.20;;
16531;SDS011;66872;63.142;14.482;2024-01-06T06:47:31;1.30;;;1.20;;
16531;SDS011;66872;63.142;14.482;2024-01-06T06:49:57;1.50;;;1.40;;
16531;SDS011;66872;63.142;14.482;2024-01-06T06:52:22;1.50;;;1.40;;
16531;SDS011;66872;63.142;14.482;2024-01-06T06:54:48;1.47;;;1.37;;
16531;SDS011;66872;63.142;14.482;2024-01-06T06:57:14;1.57;;;1.40;;
16531;SDS011;66872;63.142;14.482;2024-01-06T06:59:40;1.50;;;1.40;;
16531;SDS011;66872;63.142;14.482;2024-01-06T07:02:06;1.40;;;1.30;;
16531;SDS011;66872;63.142;14.482;2024-01-06T07:04:32;1.30;;;1.20;;
16531;SDS011;66872;63.142;14.482;2024-01-06T07:06:58;1.37;;;1.27;;
16531;SDS011;66872;63.142;14.482;2024-01-06T07:09:23;1.30;;;1.20;;
16531;SDS011;66872;63.142;14.482;2024-01-06T07:11:49;1.50;;;1.40;;
16531;SDS011;66872;63.142;14.482;2024-01-06T07:14:15;1.40;;;1.30;;
16531;SDS011;66872;63.142;14.482;2024-01-06T07:16:41;1.40;;;1.30;;
16531;SDS011;66872;63.142;14.482;2024-01-06T07:19:07;1.37;;;1.27;;
16531;SDS011;66872;63.142;14.482;2024-01-06T07:21:33;1.50;;;1.40;;
16531;SDS011;66872;63.142;14.482;2024-01-06T07:23:58;1.40;;;1.30;;
16531;SDS011;66872;63.142;14.482;2024-01-06T07:26:26;1.67;;;1.50;;
16531;SDS011;66872;63.142;14.482;2024-01-06T07:28:51;1.40;;;1.30;;
16531;SDS011;66872;63.142;14.482;2024-01-06T07:31:17;1.30;;;1.20;;
16531;SDS011;66872;63.142;14.482;2024-01-06T07:33:43;1.30;;;1.20;;
16531;SDS011;66872;63.142;14.482;2024-01-06T07:36:08;1.27;;;1.17;;
16531;SDS011;66872;63.142;14.482;2024-01-06T07:38:34;1.30;;;1.20;;
16531;SDS011;66872;63.142;14.482;2024-01-06T07:41:00;1.40;;;1.30;;
16531;SDS011;66872;63.142;14.482;2024-01-06T07:43:26;1.30;;;1.20;;
16531;SDS011;66872;63.142;14.482;2024-01-06T07:45:52;1.50;;;1.40;;
16531;SDS011;66872;63.142;14.482;2024-01-06T07:48:18;1.43;;;1.33;;
16531;SDS011;66872;63.142;14.482;2024-01-06T07:50:44;1.30;;;1.20;;
16531;SDS011;66872;63.142;14.482;2024-01-06T07:53:10;1.60;;;1.50;;
16531;SDS011;66872;63.142;14.482;2024-01-06T07:55:36;1.30;;;1.20;;
16531;SDS011;66872;63.142;14.482;2024-01-06T07:58:01;1.30;;;1.20;;
16531;SDS011;66872;63.142;14.482;2024-01-06T08:00:28;1.77;;;1.33;;
16531;SDS011;66872;63.142;14.482;2024-01-06T08:02:54;1.40;;;1.30;;
16531;SDS011;66872;63.142;14.482;2024-01-06T08:05:19;1.43;;;1.33;;
16531;SDS011;66872;63.142;14.482;2024-01-06T08:07:45;1.47;;;1.37;;
16531;SDS011;66872;63.142;14.482;2024-01-06T08:10:11;1.40;;;1.30;;
16531;SDS011;66872;63.142;14.482;2024-01-06T08:12:36;1.30;;;1.20;;
16531;SDS011;66872;63.142;14.482;2024-01-06T08:15:02;1.40;;;1.30;;
16531;SDS011;66872;63.142;14.482;2024-01-06T08:17:29;1.53;;;1.27;;
16531;SDS011;66872;63.142;14.482;2024-01-06T08:19:55;1.20;;;1.10;;
16531;SDS011;66872;63.142;14.482;2024-01-06T08:22:21;1.30;;;1.20;;
16531;SDS011;66872;63.142;14.482;2024-01-06T08:24:46;1.40;;;1.30;;
16531;SDS011;66872;63.142;14.482;2024-01-06T08:27:12;1.20;;;1.10;;
16531;SDS011;66872;63.142;14.482;2024-01-06T08:29:38;1.30;;;1.20;;
16531;SDS011;66872;63.142;14.482;2024-01-06T08:32:04;1.40;;;1.30;;
16531;SDS011;66872;63.142;14.482;2024-01-06T08:34:30;1.20;;;1.10;;
16531;SDS011;66872;63.142;14.482;2024-01-06T08:36:55;1.50;;;1.40;;
16531;SDS011;66872;63.142;14.482;2024-01-06T08:39:21;1.40;;;1.30;;
16531;SDS011;66872;63.142;14.482;2024-01-06T08:41:47;1.30;;;1.20;;
16531;SDS011;66872;63.142;14.482;2024-01-06T08:44:13;1.30;;;1.20;;
16531;SDS011;66872;63.142;14.482;2024-01-06T08:46:39;1.30;;;1.20;;
16531;SDS011;66872;63.142;14.482;2024-01-06T08:49:05;1.27;;;1.17;;
16531;SDS011;66872;63.142;14.482;2024-01-06T08:51:30;1.53;;;1.43;;
16531;SDS011;66872;63.142;14.482;2024-01-06T08:53:56;1.20;;;1.10;;
16531;SDS011;66872;63.142;14.482;2024-01-06T08:56:22;1.30;;;1.20;;
16531;SDS011;66872;63.142;14.482;2024-01-06T08:58:48;1.13;;;1.03;;
16531;SDS011;66872;63.142;14.482;2024-01-06T09:01:13;1.40;;;1.30;;
16531;SDS011;66872;63.142;14.482;2024-01-06T09:03:39;1.40;;;1.30;;
16531;SDS011;66872;63.142;14.482;2024-01-06T09:06:05;1.30;;;1.20;;
16531;SDS011;66872;63.142;14.482;2024-01-06T09:08:30;1.37;;;1.27;;
16531;SDS011;66872;63.142;14.482;2024-01-06T09:10:56;1.40;;;1.30;;
16531;SDS011;66872;63.142;14.482;2024-01-06T09:13:23;1.30;;;1.20;;
16531;SDS011;66872;63.142;14.482;2024-01-06T09:15:49;1.20;;;1.10;;
16531;SDS011;66872;63.142;14.482;2024-01-06T09:18:18;1.17;;;1.07;;
16531;SDS011;66872;63.142;14.482;2024-01-06T09:20:43;1.30;;;1.20;;
16531;SDS011;66872;63.142;14.482;2024-01-06T09:23:12;1.47;;;1.37;;
16531;SDS011;66872;63.142;14.482;2024-01-06T09:25:38;1.30;;;1.20;;
16531;SDS011;66872;63.142;14.482;2024-01-06T09:28:05;1.30;;;1.20;;
16531;SDS011;66872;63.142;14.482;2024-01-06T09:30:30;2.07;;;1.20;;
16531;SDS011;66872;63.142;14.482;2024-01-06T09:32:56;1.50;;;1.27;;
16531;SDS011;66872;63.142;14.482;2024-01-06T09:35:23;4.47;;;1.40;;
16531;SDS011;66872;63.142;14.482;2024-01-06T09:37:48;1.50;;;1.20;;
16531;SDS011;66872;63.142;14.482;2024-01-06T09:40:14;3.03;;;1.33;;
16531;SDS011;66872;63.142;14.482;2024-01-06T09:42:51;5.90;;;1.83;;
16531;SDS011;66872;63.142;14.482;2024-01-06T09:45:20;6.80;;;1.80;;
16531;SDS011;66872;63.142;14.482;2024-01-06T09:47:50;4.77;;;1.50;;
16531;SDS011;66872;63.142;14.482;2024-01-06T09:50:20;7.93;;;1.53;;
16531;SDS011;66872;63.142;14.482;2024-01-06T09:52:46;10.00;;;2.87;;
16531;SDS011;66872;63.142;14.482;2024-01-06T09:55:24;23.97;;;4.00;;
16531;SDS011;66872;63.142;14.482;2024-01-06T09:57:51;32.13;;;3.57;;
16531;SDS011;66872;63.142;14.482;2024-01-06T10:00:18;28.43;;;3.23;;
16531;SDS011;66872;63.142;14.482;2024-01-06T10:02:45;33.87;;;4.57;;
16531;SDS011;66872;63.142;14.482;2024-01-06T10:05:12;17.33;;;3.67;;
16531;SDS011;66872;63.142;14.482;2024-01-06T10:07:41;14.43;;;2.43;;
16531;SDS011;66872;63.142;14.482;2024-01-06T10:10:08;15.73;;;3.17;;
16531;SDS011;66872;63.142;14.482;2024-01-06T10:12:36;19.40;;;2.40;;
16531;SDS011;66872;63.142;14.482;2024-01-06T10:15:04;16.43;;;2.80;;
16531;SDS011;66872;63.142;14.482;2024-01-06T10:17:31;10.10;;;2.50;;
16531;SDS011;66872;63.142;14.482;2024-01-06T10:19:57;14.27;;;2.90;;
16531;SDS011;66872;63.142;14.482;2024-01-06T10:22:24;11.53;;;2.43;;
16531;SDS011;66872;63.142;14.482;2024-01-06T10:24:49;15.43;;;3.07;;
16531;SDS011;66872;63.142;14.482;2024-01-06T10:27:15;41.07;;;4.50;;
16531;SDS011;66872;63.142;14.482;2024-01-06T10:29:41;23.47;;;3.73;;
16531;SDS011;66872;63.142;14.482;2024-01-06T10:32:07;28.00;;;3.67;;
16531;SDS011;66872;63.142;14.482;2024-01-06T10:34:33;27.77;;;4.60;;
16531;SDS011;66872;63.142;14.482;2024-01-06T10:37:01;23.70;;;3.10;;
16531;SDS011;66872;63.142;14.482;2024-01-06T10:39:27;25.80;;;3.37;;
16531;SDS011;66872;63.142;14.482;2024-01-06T10:41:54;47.63;;;4.77;;
16531;SDS011;66872;63.142;14.482;2024-01-06T10:44:21;53.30;;;4.97;;
16531;SDS011;66872;63.142;14.482;2024-01-06T10:46:48;38.90;;;4.47;;
16531;SDS011;66872;63.142;14.482;2024-01-06T10:49:15;25.67;;;3.97;;
16531;SDS011;66872;63.142;14.482;2024-01-06T10:51:46;19.67;;;4.10;;
16531;SDS011;66872;63.142;14.482;2024-01-06T10:54:14;26.50;;;4.27;;
16531;SDS011;66872;63.142;14.482;2024-01-06T10:56:41;13.87;;;4.10;;
16531;SDS011;66872;63.142;14.482;2024-01-06T10:59:08;7.03;;;3.70;;
16531;SDS011;66872;63.142;14.482;2024-01-06T11:01:36;8.77;;;3.70;;
16531;SDS011;66872;63.142;14.482;2024-01-06T11:04:03;6.67;;;3.53;;
16531;SDS011;66872;63.142;14.482;2024-01-06T11:06:32;6.43;;;3.07;;
16531;SDS011;66872;63.142;14.482;2024-01-06T11:09:15;7.03;;;3.00;;
16531;SDS011;66872;63.142;14.482;2024-01-06T11:11:49;6.07;;;3.27;;
16531;SDS011;66872;63.142;14.482;2024-01-06T11:14:22;4.97;;;3.27;;
16531;SDS011;66872;63.142;14.482;2024-01-06T11:16:49;7.03;;;3.40;;
16531;SDS011;66872;63.142;14.482;2024-01-06T11:24:48;5.83;;;3.27;;
16531;SDS011;66872;63.142;14.482;2024-01-06T11:27:25;3.47;;;2.70;;
16531;SDS011;66872;63.142;14.482;2024-01-06T11:29:53;3.60;;;2.63;;
16531;SDS011;66872;63.142;14.482;2024-01-06T11:34:53;3.17;;;2.73;;
16531;SDS011;66872;63.142;14.482;2024-01-06T11:38:03;3.57;;;2.77;;
16531;SDS011;66872;63.142;14.482;2024-01-06T11:45:27;3.77;;;2.87;;
16531;SDS011;66872;63.142;14.482;2024-01-06T11:47:56;6.47;;;2.97;;
16531;SDS011;66872;63.142;14.482;2024-01-06T11:50:24;3.50;;;2.73;;
16531;SDS011;66872;63.142;14.482;2024-01-06T11:52:51;4.53;;;2.87;;
16531;SDS011;66872;63.142;14.482;2024-01-06T11:55:20;2.80;;;2.40;;
16531;SDS011;66872;63.142;14.482;2024-01-06T11:57:45;2.80;;;2.37;;
16531;SDS011;66872;63.142;14.482;2024-01-06T12:00:13;3.57;;;2.53;;
16531;SDS011;66872;63.142;14.482;2024-01-06T12:02:39;2.63;;;2.40;;
16531;SDS011;66872;63.142;14.482;2024-01-06T12:05:05;2.70;;;2.50;;
16531;SDS011;66872;63.142;14.482;2024-01-06T12:07:37;3.47;;;2.20;;
16531;SDS011;66872;63.142;14.482;2024-01-06T12:10:03;2.50;;;2.27;;
16531;SDS011;66872;63.142;14.482;2024-01-06T12:12:29;2.53;;;2.33;;
16531;SDS011;66872;63.142;14.482;2024-01-06T12:14:54;3.80;;;2.57;;
16531;SDS011;66872;63.142;14.482;2024-01-06T12:17:20;3.33;;;2.77;;
16531;SDS011;66872;63.142;14.482;2024-01-06T12:19:47;3.63;;;2.50;;
16531;SDS011;66872;63.142;14.482;2024-01-06T12:22:13;2.60;;;2.30;;
16531;SDS011;66872;63.142;14.482;2024-01-06T12:24:43;2.20;;;2.00;;
16531;SDS011;66872;63.142;14.482;2024-01-06T12:27:09;2.77;;;2.13;;
16531;SDS011;66872;63.142;14.482;2024-01-06T12:29:38;4.13;;;2.70;;
16531;SDS011;66872;63.142;14.482;2024-01-06T12:32:06;2.93;;;2.60;;
16531;SDS011;66872;63.142;14.482;2024-01-06T12:34:32;3.40;;;2.40;;
16531;SDS011;66872;63.142;14.482;2024-01-06T12:36:59;3.10;;;2.43;;
16531;SDS011;66872;63.142;14.482;2024-01-06T12:39:27;3.00;;;2.70;;
16531;SDS011;66872;63.142;14.482;2024-01-06T12:41:56;3.73;;;3.07;;
16531;SDS011;66872;63.142;14.482;2024-01-06T12:44:25;4.03;;;3.30;;
16531;SDS011;66872;63.142;14.482;2024-01-06T12:46:50;2.87;;;2.63;;
16531;SDS011;66872;63.142;14.482;2024-01-06T12:49:16;3.40;;;2.80;;
16531;SDS011;66872;63.142;14.482;2024-01-06T12:51:42;3.60;;;3.07;;
16531;SDS011;66872;63.142;14.482;2024-01-06T12:54:08;3.33;;;3.03;;
16531;SDS011;66872;63.142;14.482;2024-01-06T12:56:33;3.60;;;2.90;;
16531;SDS011;66872;63.142;14.482;2024-01-06T12:58:59;3.20;;;2.90;;
16531;SDS011;66872;63.142;14.482;2024-01-06T13:01:25;2.60;;;2.40;;
16531;SDS011;66872;63.142;14.482;2024-01-06T13:03:50;3.53;;;2.73;;
16531;SDS011;66872;63.142;14.482;2024-01-06T13:06:18;3.70;;;2.80;;
16531;SDS011;66872;63.142;14.482;2024-01-06T13:08:44;3.47;;;2.40;;
16531;SDS011;66872;63.142;14.482;2024-01-06T13:11:10;3.23;;;2.93;;
16531;SDS011;66872;63.142;14.482;2024-01-06T13:13:36;2.90;;;2.60;;
16531;SDS011;66872;63.142;14.482;2024-01-06T13:16:01;3.37;;;2.43;;
16531;SDS011;66872;63.142;14.482;2024-01-06T13:18:28;3.10;;;2.67;;
16531;SDS011;66872;63.142;14.482;2024-01-06T13:20:54;3.40;;;2.90;;
16531;SDS011;66872;63.142;14.482;2024-01-06T13:23:20;3.47;;;2.83;;
16531;SDS011;66872;63.142;14.482;2024-01-06T13:25:46;2.83;;;2.50;;
16531;SDS011;66872;63.142;14.482;2024-01-06T13:28:11;4.00;;;3.07;;
16531;SDS011;66872;63.142;14.482;2024-01-06T13:30:37;2.60;;;2.40;;
16531;SDS011;66872;63.142;14.482;2024-01-06T13:33:05;3.43;;;2.60;;
16531;SDS011;66872;63.142;14.482;2024-01-06T13:35:30;2.77;;;2.53;;
16531;SDS011;66872;63.142;14.482;2024-01-06T13:37:56;2.77;;;2.43;;
16531;SDS011;66872;63.142;14.482;2024-01-06T13:40:22;3.07;;;2.67;;
16531;SDS011;66872;63.142;14.482;2024-01-06T13:42:49;2.60;;;2.33;;
16531;SDS011;66872;63.142;14.482;2024-01-06T13:45:18;2.63;;;2.20;;
16531;SDS011;66872;63.142;14.482;2024-01-06T13:47:43;3.63;;;2.30;;
16531;SDS011;66872;63.142;14.482;2024-01-06T13:50:11;2.60;;;2.40;;
16531;SDS011;66872;63.142;14.482;2024-01-06T13:52:38;2.73;;;2.43;;
16531;SDS011;66872;63.142;14.482;2024-01-06T13:55:04;3.00;;;2.70;;
16531;SDS011;66872;63.142;14.482;2024-01-06T13:57:31;2.53;;;2.30;;
16531;SDS011;66872;63.142;14.482;2024-01-06T13:59:56;4.17;;;2.60;;
16531;SDS011;66872;63.142;14.482;2024-01-06T14:02:22;2.40;;;2.20;;
16531;SDS011;66872;63.142;14.482;2024-01-06T14:04:49;3.10;;;2.40;;
16531;SDS011;66872;63.142;14.482;2024-01-06T14:07:16;3.27;;;2.23;;
16531;SDS011;66872;63.142;14.482;2024-01-06T14:09:45;2.33;;;2.10;;
16531;SDS011;66872;63.142;14.482;2024-01-06T14:12:11;2.57;;;2.37;;
16531;SDS011;66872;63.142;14.482;2024-01-06T14:14:36;2.73;;;2.40;;
16531;SDS011;66872;63.142;14.482;2024-01-06T14:17:02;3.30;;;2.30;;
16531;SDS011;66872;63.142;14.482;2024-01-06T14:19:28;2.73;;;2.30;;
16531;SDS011;66872;63.142;14.482;2024-01-06T14:21:54;2.47;;;2.10;;
16531;SDS011;66872;63.142;14.482;2024-01-06T14:24:19;2.43;;;2.10;;
16531;SDS011;66872;63.142;14.482;2024-01-06T14:26:52;2.90;;;2.50;;
16531;SDS011;66872;63.142;14.482;2024-01-06T14:29:18;2.27;;;2.03;;
16531;SDS011;66872;63.142;14.482;2024-01-06T14:31:44;2.40;;;2.00;;
16531;SDS011;66872;63.142;14.482;2024-01-06T14:34:10;3.30;;;2.30;;
16531;SDS011;66872;63.142;14.482;2024-01-06T14:36:36;2.13;;;1.93;;
16531;SDS011;66872;63.142;14.482;2024-01-06T14:39:02;2.77;;;1.87;;
16531;SDS011;66872;63.142;14.482;2024-01-06T14:41:29;1.90;;;1.80;;